sensor_id;sensor_type;location;lat;lon;timestamp;pressure;altitude;pressure_sealevel;temperature;humidity
6349;BME280;3207;42.648;23.406;2023-04-01T00:00:29;98882.03;;;13.05;nan
6349;BME280;3207;42.648;23.406;2023-04-01T00:02:59;98892.75;;;13.11;nan
6349;BME280;3207;42.648;23.406;2023-04-01T00:05:26;98904.22;;;13.10;nan
6349;BME280;3207;42.648;23.406;2023-04-01T00:07:54;98900.25;;;13.06;nan
6349;BME280;3207;42.648;23.406;2023-04-01T00:10:21;98907.16;;;13.07;nan
6349;BME280;3207;42.648;23.406;2023-04-01T00:12:48;98902.72;;;13.08;nan
6349;BME280;3207;42.648;23.406;2023-04-01T00:15:15;98895.75;;;13.16;nan
6349;BME280;3207;42.648;23.406;2023-04-01T00:17:42;98886.69;;;13.11;nan
6349;BME280;3207;42.648;23.406;2023-04-01T00:20:09;98897.03;;;13.12;nan
6349;BME280;3207;42.648;23.406;2023-04-01T00:22:37;98889.03;;;12.96;nan
6349;BME280;3207;42.648;23.406;2023-04-01T00:25:05;98887.72;;;12.92;nan
6349;BME280;3207;42.648;23.406;2023-04-01T00:27:32;98891.91;;;12.85;nan
6349;BME280;3207;42.648;23.406;2023-04-01T00:29:59;98901.00;;;12.73;nan
6349;BME280;3207;42.648;23.406;2023-04-01T00:32:26;98903.72;;;12.81;nan
6349;BME280;3207;42.648;23.406;2023-04-01T00:34:53;98897.06;;;12.69;nan
6349;BME280;3207;42.648;23.406;2023-04-01T00:37:20;98896.97;;;12.61;nan
6349;BME280;3207;42.648;23.406;2023-04-01T00:39:48;98898.31;;;12.65;nan
6349;BME280;3207;42.648;23.406;2023-04-01T00:42:16;98907.41;;;12.53;nan
6349;BME280;3207;42.648;23.406;2023-04-01T00:44:45;98899.19;;;12.48;nan
6349;BME280;3207;42.648;23.406;2023-04-01T00:47:12;98896.75;;;12.54;nan
6349;BME280;3207;42.648;23.406;2023-04-01T00:49:41;98883.66;;;12.54;nan
6349;BME280;3207;42.648;23.406;2023-04-01T00:52:11;98879.31;;;12.45;nan
6349;BME280;3207;42.648;23.406;2023-04-01T00:54:41;98875.03;;;12.62;nan
6349;BME280;3207;42.648;23.406;2023-04-01T00:57:12;98867.53;;;12.67;nan
6349;BME280;3207;42.648;23.406;2023-04-01T00:59:44;98850.16;;;12.66;nan
6349;BME280;3207;42.648;23.406;2023-04-01T01:02:13;98849.25;;;12.75;nan
6349;BME280;3207;42.648;23.406;2023-04-01T01:04:41;98836.50;;;12.80;nan
6349;BME280;3207;42.648;23.406;2023-04-01T01:07:17;98833.72;;;12.81;nan
6349;BME280;3207;42.648;23.406;2023-04-01T01:09:54;98823.13;;;12.91;nan
6349;BME280;3207;42.648;23.406;2023-04-01T01:12:28;98826.09;;;12.96;nan
6349;BME280;3207;42.648;23.406;2023-04-01T01:15:07;98829.94;;;12.84;nan
6349;BME280;3207;42.648;23.406;2023-04-01T01:17:44;98821.75;;;12.79;nan
6349;BME280;3207;42.648;23.406;2023-04-01T01:20:40;98810.56;;;12.77;nan
6349;BME280;3207;42.648;23.406;2023-04-01T01:23:28;98790.50;;;12.60;nan
6349;BME280;3207;42.648;23.406;2023-04-01T01:26:27;98786.38;;;12.57;nan
6349;BME280;3207;42.648;23.406;2023-04-01T01:29:10;98778.81;;;12.28;nan
6349;BME280;3207;42.648;23.406;2023-04-01T01:31:45;98783.91;;;12.12;nan
6349;BME280;3207;42.648;23.406;2023-04-01T01:34:20;98769.16;;;12.11;nan
6349;BME280;3207;42.648;23.406;2023-04-01T01:36:55;98747.41;;;11.93;nan
6349;BME280;3207;42.648;23.406;2023-04-01T01:39:26;98743.28;;;11.72;nan
6349;BME280;3207;42.648;23.406;2023-04-01T01:41:56;98741.56;;;11.99;nan
6349;BME280;3207;42.648;23.406;2023-04-01T01:44:25;98741.44;;;11.83;nan
6349;BME280;3207;42.648;23.406;2023-04-01T01:46:55;98737.75;;;11.93;nan
6349;BME280;3207;42.648;23.406;2023-04-01T01:49:23;98714.72;;;11.97;nan
6349;BME280;3207;42.648;23.406;2023-04-01T01:51:52;98695.44;;;11.80;nan
6349;BME280;3207;42.648;23.406;2023-04-01T01:54:19;98703.13;;;11.82;nan
6349;BME280;3207;42.648;23.406;2023-04-01T01:56:48;98712.59;;;12.00;nan
6349;BME280;3207;42.648;23.406;2023-04-01T01:59:19;98711.78;;;12.00;nan
6349;BME280;3207;42.648;23.406;2023-04-01T02:01:49;98711.59;;;11.93;nan
6349;BME280;3207;42.648;23.406;2023-04-01T02:04:17;98694.13;;;12.02;nan
6349;BME280;3207;42.648;23.406;2023-04-01T02:06:48;98693.88;;;12.13;nan
6349;BME280;3207;42.648;23.406;2023-04-01T02:09:19;98694.75;;;12.22;nan
6349;BME280;3207;42.648;23.406;2023-04-01T02:11:49;98699.06;;;12.31;nan
6349;BME280;3207;42.648;23.406;2023-04-01T02:14:20;98696.25;;;12.24;nan
6349;BME280;3207;42.648;23.406;2023-04-01T02:16:51;98709.19;;;12.26;nan
6349;BME280;3207;42.648;23.406;2023-04-01T02:19:22;98715.59;;;12.05;nan
6349;BME280;3207;42.648;23.406;2023-04-01T02:21:53;98719.88;;;11.89;nan
6349;BME280;3207;42.648;23.406;2023-04-01T02:24:25;98712.34;;;11.86;nan
6349;BME280;3207;42.648;23.406;2023-04-01T02:26:52;98708.13;;;11.93;nan
6349;BME280;3207;42.648;23.406;2023-04-01T02:29:21;98704.53;;;11.94;nan
6349;BME280;3207;42.648;23.406;2023-04-01T02:31:51;98706.94;;;12.05;nan
6349;BME280;3207;42.648;23.406;2023-04-01T02:34:18;98711.59;;;11.93;nan
6349;BME280;3207;42.648;23.406;2023-04-01T02:36:46;98719.13;;;11.79;nan
6349;BME280;3207;42.648;23.406;2023-04-01T02:39:13;98719.56;;;11.74;nan
6349;BME280;3207;42.648;23.406;2023-04-01T02:41:43;98696.09;;;11.64;nan
6349;BME280;3207;42.648;23.406;2023-04-01T02:44:11;98713.44;;;11.65;nan
6349;BME280;3207;42.648;23.406;2023-04-01T02:46:38;98716.38;;;11.62;nan
6349;BME280;3207;42.648;23.406;2023-04-01T02:49:05;98715.38;;;11.63;nan
6349;BME280;3207;42.648;23.406;2023-04-01T02:51:33;98700.50;;;11.64;nan
6349;BME280;3207;42.648;23.406;2023-04-01T02:54:00;98708.19;;;11.65;nan
6349;BME280;3207;42.648;23.406;2023-04-01T02:56:27;98702.31;;;11.63;nan
6349;BME280;3207;42.648;23.406;2023-04-01T02:58:55;98707.53;;;11.63;nan
6349;BME280;3207;42.648;23.406;2023-04-01T03:01:22;98703.34;;;11.70;nan
6349;BME280;3207;42.648;23.406;2023-04-01T03:03:49;98701.78;;;11.78;nan
6349;BME280;3207;42.648;23.406;2023-04-01T03:06:17;98698.78;;;11.72;nan
6349;BME280;3207;42.648;23.406;2023-04-01T03:08:44;98699.97;;;11.60;nan
6349;BME280;3207;42.648;23.406;2023-04-01T03:11:11;98716.81;;;11.58;nan
6349;BME280;3207;42.648;23.406;2023-04-01T03:13:38;98718.53;;;11.49;nan
6349;BME280;3207;42.648;23.406;2023-04-01T03:16:07;98712.47;;;11.49;nan
6349;BME280;3207;42.648;23.406;2023-04-01T03:18:34;98710.59;;;11.41;nan
6349;BME280;3207;42.648;23.406;2023-04-01T03:21:12;98716.50;;;11.43;nan
6349;BME280;3207;42.648;23.406;2023-04-01T03:23:39;98714.94;;;11.32;nan
6349;BME280;3207;42.648;23.406;2023-04-01T03:26:06;98709.25;;;11.37;nan
6349;BME280;3207;42.648;23.406;2023-04-01T03:28:33;98716.34;;;11.45;nan
6349;BME280;3207;42.648;23.406;2023-04-01T03:31:00;98717.47;;;11.42;nan
6349;BME280;3207;42.648;23.406;2023-04-01T03:33:29;98719.78;;;11.27;nan
6349;BME280;3207;42.648;23.406;2023-04-01T03:35:55;98724.13;;;11.36;nan
6349;BME280;3207;42.648;23.406;2023-04-01T03:38:22;98718.53;;;11.31;nan
6349;BME280;3207;42.648;23.406;2023-04-01T03:40:49;98725.00;;;11.27;nan
6349;BME280;3207;42.648;23.406;2023-04-01T03:43:16;98734.78;;;11.25;nan
6349;BME280;3207;42.648;23.406;2023-04-01T03:45:44;98733.31;;;11.23;nan
6349;BME280;3207;42.648;23.406;2023-04-01T03:48:11;98722.06;;;11.13;nan
6349;BME280;3207;42.648;23.406;2023-04-01T03:50:39;98723.91;;;11.30;nan
6349;BME280;3207;42.648;23.406;2023-04-01T03:53:06;98731.59;;;11.31;nan
6349;BME280;3207;42.648;23.406;2023-04-01T03:55:35;98725.00;;;11.27;nan
6349;BME280;3207;42.648;23.406;2023-04-01T03:58:02;98735.69;;;11.34;nan
6349;BME280;3207;42.648;23.406;2023-04-01T04:00:29;98733.97;;;11.25;nan
6349;BME280;3207;42.648;23.406;2023-04-01T04:02:57;98740.16;;;11.24;nan
6349;BME280;3207;42.648;23.406;2023-04-01T04:05:24;98746.28;;;11.15;nan
6349;BME280;3207;42.648;23.406;2023-04-01T04:07:54;98747.34;;;11.22;nan
6349;BME280;3207;42.648;23.406;2023-04-01T04:10:21;98749.28;;;11.20;nan
6349;BME280;3207;42.648;23.406;2023-04-01T04:12:50;98753.63;;;11.29;nan
6349;BME280;3207;42.648;23.406;2023-04-01T04:15:17;98759.84;;;11.28;nan
6349;BME280;3207;42.648;23.406;2023-04-01T04:17:44;98751.63;;;11.23;nan
6349;BME280;3207;42.648;23.406;2023-04-01T04:20:11;98759.22;;;11.16;nan
6349;BME280;3207;42.648;23.406;2023-04-01T04:22:38;98761.53;;;11.19;nan
6349;BME280;3207;42.648;23.406;2023-04-01T04:25:08;98770.91;;;11.22;nan
6349;BME280;3207;42.648;23.406;2023-04-01T04:27:35;98773.78;;;11.19;nan
6349;BME280;3207;42.648;23.406;2023-04-01T04:30:02;98778.44;;;11.25;nan
6349;BME280;3207;42.648;23.406;2023-04-01T04:32:30;98744.41;;;11.07;nan
6349;BME280;3207;42.648;23.406;2023-04-01T04:34:56;98785.94;;;11.37;nan
6349;BME280;3207;42.648;23.406;2023-04-01T04:37:24;98796.34;;;11.47;nan
6349;BME280;3207;42.648;23.406;2023-04-01T04:39:51;98797.16;;;11.48;nan
6349;BME280;3207;42.648;23.406;2023-04-01T04:42:20;98789.59;;;11.45;nan
6349;BME280;3207;42.648;23.406;2023-04-01T04:44:46;98796.88;;;11.51;nan
6349;BME280;3207;42.648;23.406;2023-04-01T04:47:13;98808.59;;;11.47;nan
6349;BME280;3207;42.648;23.406;2023-04-01T04:49:40;98774.34;;;11.13;nan
6349;BME280;3207;42.648;23.406;2023-04-01T04:52:07;98821.75;;;11.37;nan
6349;BME280;3207;42.648;23.406;2023-04-01T04:54:34;98822.91;;;11.52;nan
6349;BME280;3207;42.648;23.406;2023-04-01T04:57:01;98817.28;;;11.47;nan
6349;BME280;3207;42.648;23.406;2023-04-01T04:59:29;98816.25;;;11.58;nan
6349;BME280;3207;42.648;23.406;2023-04-01T05:01:56;98817.22;;;11.57;nan
6349;BME280;3207;42.648;23.406;2023-04-01T05:04:23;98780.94;;;11.44;nan
6349;BME280;3207;42.648;23.406;2023-04-01T05:06:50;98820.72;;;11.65;nan
6349;BME280;3207;42.648;23.406;2023-04-01T05:09:17;98819.63;;;11.68;nan
6349;BME280;3207;42.648;23.406;2023-04-01T05:11:44;98811.50;;;11.71;nan
6349;BME280;3207;42.648;23.406;2023-04-01T05:14:15;98794.38;;;11.77;nan
6349;BME280;3207;42.648;23.406;2023-04-01T05:16:43;98795.44;;;11.84;nan
6349;BME280;3207;42.648;23.406;2023-04-01T05:19:10;98785.66;;;11.86;nan
6349;BME280;3207;42.648;23.406;2023-04-01T05:21:37;98771.25;;;11.72;nan
6349;BME280;3207;42.648;23.406;2023-04-01T05:24:07;98794.28;;;11.68;nan
6349;BME280;3207;42.648;23.406;2023-04-01T05:26:34;98803.25;;;11.66;nan
6349;BME280;3207;42.648;23.406;2023-04-01T05:29:02;98795.94;;;11.69;nan
6349;BME280;3207;42.648;23.406;2023-04-01T05:31:28;98805.44;;;11.70;nan
6349;BME280;3207;42.648;23.406;2023-04-01T05:33:57;98801.63;;;11.65;nan
6349;BME280;3207;42.648;23.406;2023-04-01T05:36:23;98789.50;;;11.64;nan
6349;BME280;3207;42.648;23.406;2023-04-01T05:38:50;98790.47;;;11.63;nan
6349;BME280;3207;42.648;23.406;2023-04-01T05:41:17;98796.31;;;11.74;nan
6349;BME280;3207;42.648;23.406;2023-04-01T05:43:44;98807.03;;;11.81;nan
6349;BME280;3207;42.648;23.406;2023-04-01T05:46:10;98813.25;;;11.80;nan
6349;BME280;3207;42.648;23.406;2023-04-01T05:48:37;98820.53;;;11.86;nan
6349;BME280;3207;42.648;23.406;2023-04-01T05:51:06;98811.38;;;11.90;nan
6349;BME280;3207;42.648;23.406;2023-04-01T05:53:32;98819.91;;;11.92;nan
6349;BME280;3207;42.648;23.406;2023-04-01T05:56:02;98820.94;;;11.82;nan
6349;BME280;3207;42.648;23.406;2023-04-01T05:58:29;98819.53;;;11.87;nan
6349;BME280;3207;42.648;23.406;2023-04-01T06:01:00;98824.75;;;11.87;nan
6349;BME280;3207;42.648;23.406;2023-04-01T06:03:27;98824.03;;;11.95;nan
6349;BME280;3207;42.648;23.406;2023-04-01T06:05:55;98827.91;;;11.91;nan
6349;BME280;3207;42.648;23.406;2023-04-01T06:08:24;98835.78;;;11.91;nan
6349;BME280;3207;42.648;23.406;2023-04-01T06:10:58;98836.16;;;11.96;nan
6349;BME280;3207;42.648;23.406;2023-04-01T06:13:36;98838.91;;;12.12;nan
6349;BME280;3207;42.648;23.406;2023-04-01T06:16:12;98847.53;;;12.22;nan
6349;BME280;3207;42.648;23.406;2023-04-01T06:18:57;98857.78;;;12.33;nan
6349;BME280;3207;42.648;23.406;2023-04-01T06:21:44;98849.31;;;12.39;nan
6349;BME280;3207;42.648;23.406;2023-04-01T06:24:31;98846.13;;;12.54;nan
6349;BME280;3207;42.648;23.406;2023-04-01T06:27:12;98857.31;;;12.56;nan
6349;BME280;3207;42.648;23.406;2023-04-01T06:29:49;98853.75;;;12.65;nan
6349;BME280;3207;42.648;23.406;2023-04-01T06:32:34;98857.47;;;12.80;nan
6349;BME280;3207;42.648;23.406;2023-04-01T06:38:24;98861.88;;;13.05;nan
6349;BME280;3207;42.648;23.406;2023-04-01T06:44:08;98877.69;;;13.13;nan
6349;BME280;3207;42.648;23.406;2023-04-01T06:46:44;98878.97;;;13.09;nan
6349;BME280;3207;42.648;23.406;2023-04-01T06:49:32;98868.94;;;13.31;nan
6349;BME280;3207;42.648;23.406;2023-04-01T06:52:05;98882.06;;;13.65;nan
6349;BME280;3207;42.648;23.406;2023-04-01T06:54:35;98885.16;;;14.26;nan
6349;BME280;3207;42.648;23.406;2023-04-01T06:57:11;98892.47;;;15.45;nan
6349;BME280;3207;42.648;23.406;2023-04-01T06:59:46;98883.50;;;16.01;nan
6349;BME280;3207;42.648;23.406;2023-04-01T07:02:21;98879.28;;;16.15;nan
6349;BME280;3207;42.648;23.406;2023-04-01T07:04:53;98887.06;;;16.99;nan
6349;BME280;3207;42.648;23.406;2023-04-01T07:07:29;98875.06;;;17.55;nan
6349;BME280;3207;42.648;23.406;2023-04-01T07:10:00;98876.69;;;17.56;nan
6349;BME280;3207;42.648;23.406;2023-04-01T07:12:39;98890.34;;;17.60;nan
6349;BME280;3207;42.648;23.406;2023-04-01T07:15:15;98890.91;;;17.55;nan
6349;BME280;3207;42.648;23.406;2023-04-01T07:17:45;98902.41;;;17.48;nan
6349;BME280;3207;42.648;23.406;2023-04-01T07:20:17;98896.56;;;17.52;nan
6349;BME280;3207;42.648;23.406;2023-04-01T07:22:48;98892.66;;;17.78;nan
6349;BME280;3207;42.648;23.406;2023-04-01T07:25:17;98882.63;;;18.09;nan
6349;BME280;3207;42.648;23.406;2023-04-01T07:27:46;98891.97;;;18.48;nan
6349;BME280;3207;42.648;23.406;2023-04-01T07:30:15;98903.41;;;18.34;nan
6349;BME280;3207;42.648;23.406;2023-04-01T07:32:44;98900.91;;;18.47;nan
6349;BME280;3207;42.648;23.406;2023-04-01T07:35:22;98908.81;;;18.61;nan
6349;BME280;3207;42.648;23.406;2023-04-01T07:38:09;98902.81;;;18.95;nan
6349;BME280;3207;42.648;23.406;2023-04-01T07:40:45;98911.47;;;19.38;nan
6349;BME280;3207;42.648;23.406;2023-04-01T07:43:32;98927.88;;;20.90;nan
6349;BME280;3207;42.648;23.406;2023-04-01T07:46:07;98921.88;;;21.67;nan
6349;BME280;3207;42.648;23.406;2023-04-01T07:48:44;98930.41;;;23.64;nan
6349;BME280;3207;42.648;23.406;2023-04-01T07:51:17;98933.09;;;25.02;nan
6349;BME280;3207;42.648;23.406;2023-04-01T07:53:48;98929.59;;;25.72;nan
6349;BME280;3207;42.648;23.406;2023-04-01T07:56:21;98925.66;;;26.43;nan
6349;BME280;3207;42.648;23.406;2023-04-01T07:59:00;98923.03;;;26.76;nan
6349;BME280;3207;42.648;23.406;2023-04-01T08:01:35;98925.66;;;27.05;nan
6349;BME280;3207;42.648;23.406;2023-04-01T08:07:04;98912.88;;;27.89;nan
6349;BME280;3207;42.648;23.406;2023-04-01T08:09:42;98931.41;;;29.62;nan
6349;BME280;3207;42.648;23.406;2023-04-01T08:12:20;98931.22;;;30.97;nan
6349;BME280;3207;42.648;23.406;2023-04-01T08:15:06;98940.69;;;31.29;nan
6349;BME280;3207;42.648;23.406;2023-04-01T08:17:41;98936.31;;;31.64;nan
6349;BME280;3207;42.648;23.406;2023-04-01T08:20:23;98938.63;;;33.18;nan
6349;BME280;3207;42.648;23.406;2023-04-01T08:22:58;98930.56;;;33.13;nan
6349;BME280;3207;42.648;23.406;2023-04-01T08:25:28;98942.19;;;34.38;nan
6349;BME280;3207;42.648;23.406;2023-04-01T08:28:00;98932.84;;;34.81;nan
6349;BME280;3207;42.648;23.406;2023-04-01T08:30:40;98925.88;;;34.75;nan
6349;BME280;3207;42.648;23.406;2023-04-01T08:33:12;98937.63;;;35.36;nan
6349;BME280;3207;42.648;23.406;2023-04-01T08:35:49;98937.63;;;36.18;nan
6349;BME280;3207;42.648;23.406;2023-04-01T08:38:20;98939.56;;;36.53;nan
6349;BME280;3207;42.648;23.406;2023-04-01T08:40:59;98949.91;;;36.15;nan
6349;BME280;3207;42.648;23.406;2023-04-01T08:46:40;98943.66;;;37.62;nan
6349;BME280;3207;42.648;23.406;2023-04-01T08:49:25;98950.75;;;38.37;nan
6349;BME280;3207;42.648;23.406;2023-04-01T08:52:20;98950.75;;;39.06;nan
6349;BME280;3207;42.648;23.406;2023-04-01T08:55:02;98950.94;;;38.67;nan
6349;BME280;3207;42.648;23.406;2023-04-01T08:57:45;98946.09;;;39.62;nan
6349;BME280;3207;42.648;23.406;2023-04-01T09:00:25;98949.00;;;38.59;nan
6349;BME280;3207;42.648;23.406;2023-04-01T09:03:21;98939.41;;;36.72;nan
6349;BME280;3207;42.648;23.406;2023-04-01T09:06:12;98941.00;;;34.44;nan
6349;BME280;3207;42.648;23.406;2023-04-01T09:09:02;98940.69;;;35.48;nan
6349;BME280;3207;42.648;23.406;2023-04-01T09:11:43;98938.66;;;36.08;nan
6349;BME280;3207;42.648;23.406;2023-04-01T09:14:30;98944.66;;;34.72;nan
6349;BME280;3207;42.648;23.406;2023-04-01T09:17:09;98949.53;;;36.58;nan
6349;BME280;3207;42.648;23.406;2023-04-01T09:19:57;98939.09;;;37.97;nan
6349;BME280;3207;42.648;23.406;2023-04-01T09:22:39;98940.09;;;38.01;nan
6349;BME280;3207;42.648;23.406;2023-04-01T09:25:29;98953.22;;;39.37;nan
6349;BME280;3207;42.648;23.406;2023-04-01T09:28:05;98944.50;;;41.15;nan
6349;BME280;3207;42.648;23.406;2023-04-01T09:31:04;98946.63;;;41.67;nan
6349;BME280;3207;42.648;23.406;2023-04-01T09:33:54;98954.25;;;41.49;nan
6349;BME280;3207;42.648;23.406;2023-04-01T09:36:49;98940.00;;;41.80;nan
6349;BME280;3207;42.648;23.406;2023-04-01T09:39:34;98948.50;;;43.23;nan
6349;BME280;3207;42.648;23.406;2023-04-01T09:42:14;98948.34;;;42.88;nan
6349;BME280;3207;42.648;23.406;2023-04-01T09:44:45;98953.06;;;42.88;nan
6349;BME280;3207;42.648;23.406;2023-04-01T09:47:24;98949.94;;;41.97;nan
6349;BME280;3207;42.648;23.406;2023-04-01T09:50:20;98950.41;;;42.51;nan
6349;BME280;3207;42.648;23.406;2023-04-01T09:53:07;98952.38;;;41.17;nan
6349;BME280;3207;42.648;23.406;2023-04-01T10:01:57;98945.13;;;43.77;nan
6349;BME280;3207;42.648;23.406;2023-04-01T10:08:10;98938.47;;;44.29;nan
6349;BME280;3207;42.648;23.406;2023-04-01T10:11:03;98944.91;;;44.94;nan
6349;BME280;3207;42.648;23.406;2023-04-01T10:19:49;98943.63;;;45.30;nan
6349;BME280;3207;42.648;23.406;2023-04-01T10:23:10;98930.47;;;43.26;nan
6349;BME280;3207;42.648;23.406;2023-04-01T10:25:58;98930.22;;;42.59;nan
6349;BME280;3207;42.648;23.406;2023-04-01T10:29:02;98934.66;;;42.92;nan
6349;BME280;3207;42.648;23.406;2023-04-01T10:31:58;98913.41;;;41.48;nan
6349;BME280;3207;42.648;23.406;2023-04-01T10:35:03;98902.53;;;38.41;nan
6349;BME280;3207;42.648;23.406;2023-04-01T10:38:05;98921.91;;;41.67;nan
6349;BME280;3207;42.648;23.406;2023-04-01T10:50:04;98930.44;;;43.89;nan
6349;BME280;3207;42.648;23.406;2023-04-01T10:56:16;98924.81;;;44.17;nan
6349;BME280;3207;42.648;23.406;2023-04-01T11:02:18;98923.44;;;43.91;nan
6349;BME280;3207;42.648;23.406;2023-04-01T11:05:29;98920.44;;;44.73;nan
6349;BME280;3207;42.648;23.406;2023-04-01T11:08:28;98916.41;;;45.09;nan
6349;BME280;3207;42.648;23.406;2023-04-01T11:21:21;98918.72;;;44.65;nan
6349;BME280;3207;42.648;23.406;2023-04-01T11:24:16;98913.50;;;45.71;nan
6349;BME280;3207;42.648;23.406;2023-04-01T11:26:57;98904.44;;;46.60;nan
6349;BME280;3207;42.648;23.406;2023-04-01T11:29:56;98919.13;;;46.64;nan
6349;BME280;3207;42.648;23.406;2023-04-01T11:32:31;98905.50;;;46.18;nan
6349;BME280;3207;42.648;23.406;2023-04-01T11:35:23;98906.31;;;45.17;nan
6349;BME280;3207;42.648;23.406;2023-04-01T11:37:57;98897.63;;;43.01;nan
6349;BME280;3207;42.648;23.406;2023-04-01T11:40:37;98878.78;;;40.53;nan
6349;BME280;3207;42.648;23.406;2023-04-01T11:43:12;98880.94;;;39.00;nan
6349;BME280;3207;42.648;23.406;2023-04-01T11:45:47;98887.22;;;37.97;nan
6349;BME280;3207;42.648;23.406;2023-04-01T11:48:34;98879.31;;;37.70;nan
6349;BME280;3207;42.648;23.406;2023-04-01T11:51:19;98869.44;;;38.08;nan
6349;BME280;3207;42.648;23.406;2023-04-01T11:53:53;98867.69;;;36.41;nan
6349;BME280;3207;42.648;23.406;2023-04-01T11:56:37;98857.88;;;35.40;nan
6349;BME280;3207;42.648;23.406;2023-04-01T11:59:37;98852.88;;;34.17;nan
6349;BME280;3207;42.648;23.406;2023-04-01T12:02:22;98838.78;;;32.83;nan
6349;BME280;3207;42.648;23.406;2023-04-01T12:05:00;98829.41;;;31.27;nan
6349;BME280;3207;42.648;23.406;2023-04-01T12:07:50;98827.91;;;30.61;nan
6349;BME280;3207;42.648;23.406;2023-04-01T12:10:21;98823.19;;;29.90;nan
6349;BME280;3207;42.648;23.406;2023-04-01T12:13:01;98822.16;;;29.34;nan
6349;BME280;3207;42.648;23.406;2023-04-01T12:15:48;98816.66;;;29.08;nan
6349;BME280;3207;42.648;23.406;2023-04-01T12:18:25;98828.31;;;28.82;nan
6349;BME280;3207;42.648;23.406;2023-04-01T12:20:57;98817.03;;;28.53;nan
6349;BME280;3207;42.648;23.406;2023-04-01T12:23:40;98814.78;;;28.13;nan
6349;BME280;3207;42.648;23.406;2023-04-01T12:26:35;98810.16;;;28.09;nan
6349;BME280;3207;42.648;23.406;2023-04-01T12:29:35;98811.13;;;27.27;nan
6349;BME280;3207;42.648;23.406;2023-04-01T12:32:12;98807.28;;;27.23;nan
6349;BME280;3207;42.648;23.406;2023-04-01T12:34:55;98798.88;;;26.59;nan
6349;BME280;3207;42.648;23.406;2023-04-01T12:37:33;98799.84;;;26.53;nan
6349;BME280;3207;42.648;23.406;2023-04-01T12:40:17;98808.28;;;26.28;nan
6349;BME280;3207;42.648;23.406;2023-04-01T12:43:10;98804.22;;;26.42;nan
6349;BME280;3207;42.648;23.406;2023-04-01T12:45:45;98799.34;;;25.14;nan
6349;BME280;3207;42.648;23.406;2023-04-01T12:48:44;98795.03;;;25.13;nan
6349;BME280;3207;42.648;23.406;2023-04-01T12:51:32;98800.25;;;25.31;nan
6349;BME280;3207;42.648;23.406;2023-04-01T12:54:32;98807.47;;;24.26;nan
6349;BME280;3207;42.648;23.406;2023-04-01T12:57:41;98795.03;;;24.01;nan
6349;BME280;3207;42.648;23.406;2023-04-01T13:00:30;98799.56;;;24.31;nan
6349;BME280;3207;42.648;23.406;2023-04-01T13:03:16;98796.97;;;23.94;nan
6349;BME280;3207;42.648;23.406;2023-04-01T13:06:14;98798.41;;;24.08;nan
6349;BME280;3207;42.648;23.406;2023-04-01T13:08:49;98797.31;;;23.86;nan
6349;BME280;3207;42.648;23.406;2023-04-01T13:11:22;98795.66;;;23.55;nan
6349;BME280;3207;42.648;23.406;2023-04-01T13:16:53;98793.75;;;23.08;nan
6349;BME280;3207;42.648;23.406;2023-04-01T13:19:31;98792.72;;;22.66;nan
6349;BME280;3207;42.648;23.406;2023-04-01T13:22:07;98782.91;;;22.84;nan
6349;BME280;3207;42.648;23.406;2023-04-01T13:24:52;98776.16;;;22.14;nan
6349;BME280;3207;42.648;23.406;2023-04-01T13:27:26;98782.31;;;22.57;nan
6349;BME280;3207;42.648;23.406;2023-04-01T13:30:04;98791.22;;;22.70;nan
6349;BME280;3207;42.648;23.406;2023-04-01T13:32:37;98767.88;;;22.22;nan
6349;BME280;3207;42.648;23.406;2023-04-01T13:35:17;98784.41;;;22.55;nan
6349;BME280;3207;42.648;23.406;2023-04-01T13:38:23;98791.16;;;22.33;nan
6349;BME280;3207;42.648;23.406;2023-04-01T13:41:01;98776.16;;;22.57;nan
6349;BME280;3207;42.648;23.406;2023-04-01T13:43:35;98768.88;;;22.95;nan
6349;BME280;3207;42.648;23.406;2023-04-01T13:46:24;98767.16;;;23.19;nan
6349;BME280;3207;42.648;23.406;2023-04-01T13:52:28;98762.38;;;22.67;nan
6349;BME280;3207;42.648;23.406;2023-04-01T13:55:24;98768.78;;;22.59;nan
6349;BME280;3207;42.648;23.406;2023-04-01T13:58:20;98740.72;;;22.13;nan
6349;BME280;3207;42.648;23.406;2023-04-01T14:00:56;98758.25;;;22.21;nan
6349;BME280;3207;42.648;23.406;2023-04-01T14:03:32;98746.66;;;22.58;nan
6349;BME280;3207;42.648;23.406;2023-04-01T14:06:14;98749.41;;;22.95;nan
6349;BME280;3207;42.648;23.406;2023-04-01T14:09:08;98753.91;;;23.13;nan
6349;BME280;3207;42.648;23.406;2023-04-01T14:11:46;98757.09;;;22.85;nan
6349;BME280;3207;42.648;23.406;2023-04-01T14:14:27;98739.66;;;22.39;nan
6349;BME280;3207;42.648;23.406;2023-04-01T14:17:27;98752.47;;;22.49;nan
6349;BME280;3207;42.648;23.406;2023-04-01T14:23:13;98755.03;;;22.87;nan
6349;BME280;3207;42.648;23.406;2023-04-01T14:25:58;98748.28;;;23.03;nan
6349;BME280;3207;42.648;23.406;2023-04-01T14:28:35;98745.22;;;22.99;nan
6349;BME280;3207;42.648;23.406;2023-04-01T14:31:34;98761.81;;;22.58;nan
6349;BME280;3207;42.648;23.406;2023-04-01T14:34:15;98762.09;;;22.75;nan
6349;BME280;3207;42.648;23.406;2023-04-01T14:36:51;98766.69;;;22.43;nan
6349;BME280;3207;42.648;23.406;2023-04-01T14:39:38;98756.19;;;22.23;nan
6349;BME280;3207;42.648;23.406;2023-04-01T14:42:44;98765.72;;;22.12;nan
6349;BME280;3207;42.648;23.406;2023-04-01T14:45:46;98743.81;;;21.72;nan
6349;BME280;3207;42.648;23.406;2023-04-01T14:48:28;98767.69;;;21.47;nan
6349;BME280;3207;42.648;23.406;2023-04-01T14:51:03;98763.88;;;21.37;nan
6349;BME280;3207;42.648;23.406;2023-04-01T14:53:37;98767.13;;;21.39;nan
6349;BME280;3207;42.648;23.406;2023-04-01T14:56:07;98770.94;;;21.56;nan
6349;BME280;3207;42.648;23.406;2023-04-01T14:58:44;98758.84;;;21.60;nan
6349;BME280;3207;42.648;23.406;2023-04-01T15:01:26;98767.66;;;21.61;nan
6349;BME280;3207;42.648;23.406;2023-04-01T15:04:05;98760.91;;;21.58;nan
6349;BME280;3207;42.648;23.406;2023-04-01T15:06:47;98756.84;;;21.49;nan
6349;BME280;3207;42.648;23.406;2023-04-01T15:09:27;98756.00;;;21.55;nan
6349;BME280;3207;42.648;23.406;2023-04-01T15:12:06;98753.44;;;21.35;nan
6349;BME280;3207;42.648;23.406;2023-04-01T15:14:54;98764.66;;;21.44;nan
6349;BME280;3207;42.648;23.406;2023-04-01T15:17:35;98757.69;;;21.49;nan
6349;BME280;3207;42.648;23.406;2023-04-01T15:20:45;98767.06;;;21.52;nan
6349;BME280;3207;42.648;23.406;2023-04-01T15:23:35;98764.38;;;21.52;nan
6349;BME280;3207;42.648;23.406;2023-04-01T15:26:15;98768.41;;;21.10;nan